sensor_id;sensor_type;location;lat;lon;timestamp;temperature;humidity
51615;DHT22;37695;52.960;6.188;2023-05-14T00:01:12;11.40;99.90
51615;DHT22;37695;52.960;6.188;2023-05-14T00:03:38;11.40;99.90
51615;DHT22;37695;52.960;6.188;2023-05-14T00:06:05;11.40;99.90
51615;DHT22;37695;52.960;6.188;2023-05-14T00:08:32;11.30;99.90
51615;DHT22;37695;52.960;6.188;2023-05-14T00:10:58;11.30;99.90
51615;DHT22;37695;52.960;6.188;2023-05-14T00:13:24;11.20;99.90
51615;DHT22;37695;52.960;6.188;2023-05-14T00:15:50;11.20;99.90
51615;DHT22;37695;52.960;6.188;2023-05-14T00:18:15;11.10;99.90
51615;DHT22;37695;52.960;6.188;2023-05-14T00:20:41;11.10;99.90
51615;DHT22;37695;52.960;6.188;2023-05-14T00:23:06;11.10;99.90
51615;DHT22;37695;52.960;6.188;2023-05-14T00:25:32;11.00;99.90
51615;DHT22;37695;52.960;6.188;2023-05-14T00:27:58;11.00;99.90
51615;DHT22;37695;52.960;6.188;2023-05-14T00:30:23;10.90;99.90
51615;DHT22;37695;52.960;6.188;2023-05-14T00:32:49;10.90;99.90
51615;DHT22;37695;52.960;6.188;2023-05-14T00:35:14;10.90;99.90
51615;DHT22;37695;52.960;6.188;2023-05-14T00:37:40;10.90;99.90
51615;DHT22;37695;52.960;6.188;2023-05-14T00:40:06;10.80;99.90
51615;DHT22;37695;52.960;6.188;2023-05-14T00:42:33;10.80;99.90
51615;DHT22;37695;52.960;6.188;2023-05-14T00:44:59;10.80;99.90
51615;DHT22;37695;52.960;6.188;2023-05-14T00:47:25;10.80;99.90
51615;DHT22;37695;52.960;6.188;2023-05-14T00:49:51;10.80;99.90
51615;DHT22;37695;52.960;6.188;2023-05-14T00:52:17;10.80;99.90
51615;DHT22;37695;52.960;6.188;2023-05-14T00:54:44;10.70;99.90
51615;DHT22;37695;52.960;6.188;2023-05-14T00:57:11;10.70;99.90
51615;DHT22;37695;52.960;6.188;2023-05-14T00:59:36;10.70;99.90
51615;DHT22;37695;52.960;6.188;2023-05-14T01:02:05;10.70;99.90
51615;DHT22;37695;52.960;6.188;2023-05-14T01:04:30;10.70;99.90
51615;DHT22;37695;52.960;6.188;2023-05-14T01:09:49;10.70;99.90
51615;DHT22;37695;52.960;6.188;2023-05-14T01:15:11;10.60;99.90
51615;DHT22;37695;52.960;6.188;2023-05-14T01:17:41;10.50;99.90
51615;DHT22;37695;52.960;6.188;2023-05-14T01:20:08;10.50;99.90
51615;DHT22;37695;52.960;6.188;2023-05-14T01:22:33;10.50;99.90
51615;DHT22;37695;52.960;6.188;2023-05-14T01:24:59;10.50;99.90
51615;DHT22;37695;52.960;6.188;2023-05-14T01:27:31;10.50;99.90
51615;DHT22;37695;52.960;6.188;2023-05-14T01:30:20;10.40;99.90
51615;DHT22;37695;52.960;6.188;2023-05-14T01:32:50;10.30;99.90
51615;DHT22;37695;52.960;6.188;2023-05-14T01:35:16;10.30;99.90
51615;DHT22;37695;52.960;6.188;2023-05-14T01:37:43;10.30;99.90
51615;DHT22;37695;52.960;6.188;2023-05-14T01:40:09;10.30;99.90
51615;DHT22;37695;52.960;6.188;2023-05-14T01:42:36;10.30;99.90
51615;DHT22;37695;52.960;6.188;2023-05-14T01:45:02;10.20;99.90
51615;DHT22;37695;52.960;6.188;2023-05-14T01:47:27;10.20;99.90
51615;DHT22;37695;52.960;6.188;2023-05-14T01:49:53;10.30;99.90
51615;DHT22;37695;52.960;6.188;2023-05-14T01:52:19;10.20;99.90
51615;DHT22;37695;52.960;6.188;2023-05-14T01:54:46;10.20;99.90
51615;DHT22;37695;52.960;6.188;2023-05-14T01:57:12;10.10;99.90
51615;DHT22;37695;52.960;6.188;2023-05-14T01:59:37;10.20;99.90
51615;DHT22;37695;52.960;6.188;2023-05-14T02:02:03;10.10;99.90
51615;DHT22;37695;52.960;6.188;2023-05-14T02:04:28;10.20;99.90
51615;DHT22;37695;52.960;6.188;2023-05-14T02:06:54;10.10;99.90
51615;DHT22;37695;52.960;6.188;2023-05-14T02:09:20;10.10;99.90
51615;DHT22;37695;52.960;6.188;2023-05-14T02:11:45;10.10;99.90
51615;DHT22;37695;52.960;6.188;2023-05-14T02:14:11;10.10;99.90
51615;DHT22;37695;52.960;6.188;2023-05-14T02:16:37;10.10;99.90
51615;DHT22;37695;52.960;6.188;2023-05-14T02:19:03;10.10;99.90
51615;DHT22;37695;52.960;6.188;2023-05-14T02:21:29;10.10;99.90
51615;DHT22;37695;52.960;6.188;2023-05-14T02:23:55;10.10;99.90
51615;DHT22;37695;52.960;6.188;2023-05-14T02:26:20;10.10;99.90
51615;DHT22;37695;52.960;6.188;2023-05-14T02:28:46;10.20;99.90
51615;DHT22;37695;52.960;6.188;2023-05-14T02:31:12;10.20;99.90
51615;DHT22;37695;52.960;6.188;2023-05-14T02:33:38;10.30;99.90
51615;DHT22;37695;52.960;6.188;2023-05-14T02:36:04;10.30;99.90
51615;DHT22;37695;52.960;6.188;2023-05-14T02:38:30;10.30;99.90
51615;DHT22;37695;52.960;6.188;2023-05-14T02:40:55;10.30;99.90
51615;DHT22;37695;52.960;6.188;2023-05-14T02:43:21;10.30;99.90
51615;DHT22;37695;52.960;6.188;2023-05-14T02:45:46;10.30;99.90
51615;DHT22;37695;52.960;6.188;2023-05-14T02:48:12;10.30;99.90
51615;DHT22;37695;52.960;6.188;2023-05-14T02:50:37;10.30;99.90
51615;DHT22;37695;52.960;6.188;2023-05-14T02:53:03;10.30;99.90
51615;DHT22;37695;52.960;6.188;2023-05-14T02:55:28;10.30;99.90
51615;DHT22;37695;52.960;6.188;2023-05-14T02:57:54;10.20;99.90
51615;DHT22;37695;52.960;6.188;2023-05-14T03:00:21;10.20;99.90
51615;DHT22;37695;52.960;6.188;2023-05-14T03:02:46;10.20;99.90
51615;DHT22;37695;52.960;6.188;2023-05-14T03:05:12;10.20;99.90
51615;DHT22;37695;52.960;6.188;2023-05-14T03:07:37;10.10;99.90
51615;DHT22;37695;52.960;6.188;2023-05-14T03:10:03;10.20;99.90
51615;DHT22;37695;52.960;6.188;2023-05-14T03:12:29;10.10;99.90
51615;DHT22;37695;52.960;6.188;2023-05-14T03:14:54;10.10;99.90
51615;DHT22;37695;52.960;6.188;2023-05-14T03:17:20;10.10;99.90
51615;DHT22;37695;52.960;6.188;2023-05-14T03:19:45;10.10;99.90
51615;DHT22;37695;52.960;6.188;2023-05-14T03:22:11;10.10;99.90
51615;DHT22;37695;52.960;6.188;2023-05-14T03:24:38;10.00;99.90
51615;DHT22;37695;52.960;6.188;2023-05-14T03:27:04;10.00;99.90
51615;DHT22;37695;52.960;6.188;2023-05-14T03:29:30;10.00;99.90
51615;DHT22;37695;52.960;6.188;2023-05-14T03:31:55;10.00;99.90
51615;DHT22;37695;52.960;6.188;2023-05-14T03:34:21;9.90;99.90
51615;DHT22;37695;52.960;6.188;2023-05-14T03:36:47;9.90;99.90
51615;DHT22;37695;52.960;6.188;2023-05-14T03:39:12;9.90;99.90
51615;DHT22;37695;52.960;6.188;2023-05-14T03:41:46;10.00;99.90
51615;DHT22;37695;52.960;6.188;2023-05-14T03:44:12;9.90;99.90
51615;DHT22;37695;52.960;6.188;2023-05-14T03:46:38;9.90;99.90
51615;DHT22;37695;52.960;6.188;2023-05-14T03:49:03;9.90;99.90
51615;DHT22;37695;52.960;6.188;2023-05-14T03:51:29;9.90;99.90
51615;DHT22;37695;52.960;6.188;2023-05-14T03:53:56;9.90;99.90
51615;DHT22;37695;52.960;6.188;2023-05-14T03:56:23;9.90;99.90
51615;DHT22;37695;52.960;6.188;2023-05-14T03:58:48;10.00;99.90
51615;DHT22;37695;52.960;6.188;2023-05-14T04:01:14;10.00;99.90
51615;DHT22;37695;52.960;6.188;2023-05-14T04:03:39;10.00;99.90
51615;DHT22;37695;52.960;6.188;2023-05-14T04:06:05;9.90;99.90
51615;DHT22;37695;52.960;6.188;2023-05-14T04:08:30;9.90;99.90
51615;DHT22;37695;52.960;6.188;2023-05-14T04:10:56;9.90;99.90
51615;DHT22;37695;52.960;6.188;2023-05-14T04:13:22;10.00;99.90
51615;DHT22;37695;52.960;6.188;2023-05-14T04:15:47;10.00;99.90
51615;DHT22;37695;52.960;6.188;2023-05-14T04:18:13;10.00;99.90
51615;DHT22;37695;52.960;6.188;2023-05-14T04:20:38;10.00;99.90
51615;DHT22;37695;52.960;6.188;2023-05-14T04:23:04;10.10;99.90
51615;DHT22;37695;52.960;6.188;2023-05-14T04:25:30;10.10;99.90
51615;DHT22;37695;52.960;6.188;2023-05-14T04:27:56;10.20;99.90
51615;DHT22;37695;52.960;6.188;2023-05-14T04:30:22;10.20;99.90
51615;DHT22;37695;52.960;6.188;2023-05-14T04:32:48;10.20;99.90
51615;DHT22;37695;52.960;6.188;2023-05-14T04:35:14;10.30;99.90
51615;DHT22;37695;52.960;6.188;2023-05-14T04:37:39;10.30;99.90
51615;DHT22;37695;52.960;6.188;2023-05-14T04:40:08;10.30;99.90
51615;DHT22;37695;52.960;6.188;2023-05-14T04:42:35;10.40;99.90
51615;DHT22;37695;52.960;6.188;2023-05-14T04:45:01;10.40;99.90
51615;DHT22;37695;52.960;6.188;2023-05-14T04:47:27;10.40;99.90
51615;DHT22;37695;52.960;6.188;2023-05-14T04:49:52;10.40;99.90
51615;DHT22;37695;52.960;6.188;2023-05-14T04:52:18;10.50;99.90
51615;DHT22;37695;52.960;6.188;2023-05-14T04:54:43;10.60;99.90
51615;DHT22;37695;52.960;6.188;2023-05-14T04:57:09;10.60;99.90
51615;DHT22;37695;52.960;6.188;2023-05-14T04:59:35;10.70;99.90
51615;DHT22;37695;52.960;6.188;2023-05-14T05:02:00;10.80;99.90
51615;DHT22;37695;52.960;6.188;2023-05-14T05:04:26;10.90;99.90
51615;DHT22;37695;52.960;6.188;2023-05-14T05:06:52;10.90;99.90
51615;DHT22;37695;52.960;6.188;2023-05-14T05:09:17;10.90;99.90
51615;DHT22;37695;52.960;6.188;2023-05-14T05:11:43;11.00;99.90
51615;DHT22;37695;52.960;6.188;2023-05-14T05:14:08;11.10;99.90
51615;DHT22;37695;52.960;6.188;2023-05-14T05:16:34;11.20;99.90
51615;DHT22;37695;52.960;6.188;2023-05-14T05:19:00;11.30;99.90
51615;DHT22;37695;52.960;6.188;2023-05-14T05:21:26;11.40;99.90
51615;DHT22;37695;52.960;6.188;2023-05-14T05:23:51;11.50;99.90
51615;DHT22;37695;52.960;6.188;2023-05-14T05:26:17;11.60;99.90
51615;DHT22;37695;52.960;6.188;2023-05-14T05:28:42;11.70;99.90
51615;DHT22;37695;52.960;6.188;2023-05-14T05:31:08;11.80;99.90
51615;DHT22;37695;52.960;6.188;2023-05-14T05:33:34;11.80;99.90
51615;DHT22;37695;52.960;6.188;2023-05-14T05:36:00;11.90;99.90
51615;DHT22;37695;52.960;6.188;2023-05-14T05:38:25;11.90;99.90
51615;DHT22;37695;52.960;6.188;2023-05-14T05:40:51;12.00;99.90
51615;DHT22;37695;52.960;6.188;2023-05-14T05:43:16;12.00;99.90
51615;DHT22;37695;52.960;6.188;2023-05-14T05:45:42;12.10;99.90
51615;DHT22;37695;52.960;6.188;2023-05-14T05:48:08;12.20;99.90
51615;DHT22;37695;52.960;6.188;2023-05-14T05:50:33;12.20;99.90
51615;DHT22;37695;52.960;6.188;2023-05-14T05:52:59;12.20;99.90
51615;DHT22;37695;52.960;6.188;2023-05-14T05:55:24;12.30;99.90
51615;DHT22;37695;52.960;6.188;2023-05-14T05:57:50;12.30;99.90
51615;DHT22;37695;52.960;6.188;2023-05-14T06:00:16;12.30;99.90
51615;DHT22;37695;52.960;6.188;2023-05-14T06:02:42;12.30;99.90
51615;DHT22;37695;52.960;6.188;2023-05-14T06:05:08;12.40;99.90
51615;DHT22;37695;52.960;6.188;2023-05-14T06:07:35;12.40;99.90
51615;DHT22;37695;52.960;6.188;2023-05-14T06:10:00;12.40;99.90
51615;DHT22;37695;52.960;6.188;2023-05-14T06:12:26;12.40;99.90
51615;DHT22;37695;52.960;6.188;2023-05-14T06:14:53;12.40;99.90
51615;DHT22;37695;52.960;6.188;2023-05-14T06:17:20;12.40;99.90
51615;DHT22;37695;52.960;6.188;2023-05-14T06:19:45;12.50;99.90
51615;DHT22;37695;52.960;6.188;2023-05-14T06:22:11;12.50;99.90
51615;DHT22;37695;52.960;6.188;2023-05-14T06:24:37;12.60;99.90
51615;DHT22;37695;52.960;6.188;2023-05-14T06:27:02;12.70;99.90
51615;DHT22;37695;52.960;6.188;2023-05-14T06:29:28;12.80;99.90
51615;DHT22;37695;52.960;6.188;2023-05-14T06:31:53;12.90;99.90
51615;DHT22;37695;52.960;6.188;2023-05-14T06:34:19;13.00;99.90
51615;DHT22;37695;52.960;6.188;2023-05-14T06:36:45;13.00;99.90
51615;DHT22;37695;52.960;6.188;2023-05-14T06:39:10;13.20;99.90
51615;DHT22;37695;52.960;6.188;2023-05-14T06:41:36;13.20;99.90
51615;DHT22;37695;52.960;6.188;2023-05-14T06:44:02;13.30;99.90
51615;DHT22;37695;52.960;6.188;2023-05-14T06:46:28;13.30;99.90
51615;DHT22;37695;52.960;6.188;2023-05-14T06:48:53;13.40;99.90
51615;DHT22;37695;52.960;6.188;2023-05-14T06:51:19;13.50;99.90
51615;DHT22;37695;52.960;6.188;2023-05-14T06:53:44;13.60;99.90
51615;DHT22;37695;52.960;6.188;2023-05-14T06:56:11;13.70;99.90
51615;DHT22;37695;52.960;6.188;2023-05-14T06:58:37;13.80;99.90
51615;DHT22;37695;52.960;6.188;2023-05-14T07:01:03;13.80;99.90
51615;DHT22;37695;52.960;6.188;2023-05-14T07:03:29;13.90;99.90
51615;DHT22;37695;52.960;6.188;2023-05-14T07:05:54;14.00;99.90
51615;DHT22;37695;52.960;6.188;2023-05-14T07:08:20;14.00;99.90
51615;DHT22;37695;52.960;6.188;2023-05-14T07:10:45;14.00;99.90
51615;DHT22;37695;52.960;6.188;2023-05-14T07:13:11;14.00;99.90
51615;DHT22;37695;52.960;6.188;2023-05-14T07:15:36;14.20;99.90
51615;DHT22;37695;52.960;6.188;2023-05-14T07:18:02;14.30;99.90
51615;DHT22;37695;52.960;6.188;2023-05-14T07:20:27;14.40;99.90
51615;DHT22;37695;52.960;6.188;2023-05-14T07:22:53;14.50;99.90
51615;DHT22;37695;52.960;6.188;2023-05-14T07:25:19;14.50;99.90
51615;DHT22;37695;52.960;6.188;2023-05-14T07:27:44;14.60;99.90
51615;DHT22;37695;52.960;6.188;2023-05-14T07:30:10;14.70;99.90
51615;DHT22;37695;52.960;6.188;2023-05-14T07:32:36;14.80;99.90
51615;DHT22;37695;52.960;6.188;2023-05-14T07:35:01;14.80;99.90
51615;DHT22;37695;52.960;6.188;2023-05-14T07:37:27;14.90;99.90
51615;DHT22;37695;52.960;6.188;2023-05-14T07:39:52;15.10;99.90
51615;DHT22;37695;52.960;6.188;2023-05-14T07:42:18;15.30;99.90
51615;DHT22;37695;52.960;6.188;2023-05-14T07:44:44;15.40;99.90
51615;DHT22;37695;52.960;6.188;2023-05-14T07:47:10;15.50;99.90
51615;DHT22;37695;52.960;6.188;2023-05-14T07:49:35;15.60;99.90
51615;DHT22;37695;52.960;6.188;2023-05-14T07:52:01;15.60;99.90
51615;DHT22;37695;52.960;6.188;2023-05-14T07:54:27;15.70;99.90
51615;DHT22;37695;52.960;6.188;2023-05-14T07:56:52;15.80;99.90
51615;DHT22;37695;52.960;6.188;2023-05-14T07:59:18;15.80;99.90
51615;DHT22;37695;52.960;6.188;2023-05-14T08:01:44;16.00;99.90
51615;DHT22;37695;52.960;6.188;2023-05-14T08:04:09;16.00;99.90
51615;DHT22;37695;52.960;6.188;2023-05-14T08:06:36;16.10;99.90
51615;DHT22;37695;52.960;6.188;2023-05-14T08:09:02;16.30;99.90
51615;DHT22;37695;52.960;6.188;2023-05-14T08:11:30;16.30;99.90
51615;DHT22;37695;52.960;6.188;2023-05-14T08:13:55;16.30;99.90
51615;DHT22;37695;52.960;6.188;2023-05-14T08:16:21;16.40;99.90
51615;DHT22;37695;52.960;6.188;2023-05-14T08:18:47;16.40;99.90
51615;DHT22;37695;52.960;6.188;2023-05-14T08:21:13;16.40;99.90
51615;DHT22;37695;52.960;6.188;2023-05-14T08:23:39;16.40;99.90
51615;DHT22;37695;52.960;6.188;2023-05-14T08:26:04;16.60;99.90
51615;DHT22;37695;52.960;6.188;2023-05-14T08:28:30;16.70;99.90
51615;DHT22;37695;52.960;6.188;2023-05-14T08:30:55;16.80;99.90
51615;DHT22;37695;52.960;6.188;2023-05-14T08:33:21;16.90;99.90
51615;DHT22;37695;52.960;6.188;2023-05-14T08:35:46;16.90;99.90
51615;DHT22;37695;52.960;6.188;2023-05-14T08:38:14;17.10;99.90
51615;DHT22;37695;52.960;6.188;2023-05-14T08:40:39;17.20;99.90
51615;DHT22;37695;52.960;6.188;2023-05-14T08:43:05;17.40;99.90
51615;DHT22;37695;52.960;6.188;2023-05-14T08:45:33;17.50;99.90
51615;DHT22;37695;52.960;6.188;2023-05-14T08:47:59;17.50;99.90
51615;DHT22;37695;52.960;6.188;2023-05-14T08:50:27;17.60;99.90
51615;DHT22;37695;52.960;6.188;2023-05-14T08:52:54;17.80;99.90
51615;DHT22;37695;52.960;6.188;2023-05-14T08:55:20;18.00;99.90
51615;DHT22;37695;52.960;6.188;2023-05-14T08:57:47;18.00;99.90
51615;DHT22;37695;52.960;6.188;2023-05-14T09:00:13;18.10;99.90
51615;DHT22;37695;52.960;6.188;2023-05-14T09:02:40;18.10;99.90
51615;DHT22;37695;52.960;6.188;2023-05-14T09:05:07;18.10;99.90
51615;DHT22;37695;52.960;6.188;2023-05-14T09:07:34;18.20;99.90
51615;DHT22;37695;52.960;6.188;2023-05-14T09:10:00;18.20;99.90
51615;DHT22;37695;52.960;6.188;2023-05-14T09:12:26;18.20;99.90
51615;DHT22;37695;52.960;6.188;2023-05-14T09:14:52;18.20;99.90
51615;DHT22;37695;52.960;6.188;2023-05-14T09:17:18;18.40;99.90
51615;DHT22;37695;52.960;6.188;2023-05-14T09:19:45;18.40;99.90
51615;DHT22;37695;52.960;6.188;2023-05-14T09:22:17;18.50;99.90
51615;DHT22;37695;52.960;6.188;2023-05-14T09:24:43;18.50;99.90
51615;DHT22;37695;52.960;6.188;2023-05-14T09:27:18;18.70;99.90
51615;DHT22;37695;52.960;6.188;2023-05-14T09:29:45;18.60;99.90
51615;DHT22;37695;52.960;6.188;2023-05-14T09:32:10;18.70;99.90
51615;DHT22;37695;52.960;6.188;2023-05-14T09:34:36;18.70;99.90
51615;DHT22;37695;52.960;6.188;2023-05-14T09:37:08;18.90;99.90
51615;DHT22;37695;52.960;6.188;2023-05-14T09:39:36;19.10;99.90
51615;DHT22;37695;52.960;6.188;2023-05-14T09:42:02;19.10;99.90
51615;DHT22;37695;52.960;6.188;2023-05-14T09:44:28;19.20;99.90
51615;DHT22;37695;52.960;6.188;2023-05-14T09:46:54;19.30;99.90
51615;DHT22;37695;52.960;6.188;2023-05-14T09:49:20;19.50;99.90
51615;DHT22;37695;52.960;6.188;2023-05-14T09:51:45;19.70;99.90
51615;DHT22;37695;52.960;6.188;2023-05-14T09:54:12;19.80;99.90
51615;DHT22;37695;52.960;6.188;2023-05-14T09:56:38;19.90;99.90
51615;DHT22;37695;52.960;6.188;2023-05-14T09:59:06;19.90;99.90
51615;DHT22;37695;52.960;6.188;2023-05-14T10:01:32;20.00;99.90
51615;DHT22;37695;52.960;6.188;2023-05-14T10:03:57;20.10;99.90
51615;DHT22;37695;52.960;6.188;2023-05-14T10:06:36;20.30;99.90
51615;DHT22;37695;52.960;6.188;2023-05-14T10:09:04;20.40;99.90
51615;DHT22;37695;52.960;6.188;2023-05-14T10:11:32;20.50;99.90
51615;DHT22;37695;52.960;6.188;2023-05-14T10:14:06;20.50;99.90
51615;DHT22;37695;52.960;6.188;2023-05-14T10:16:40;20.70;99.90
51615;DHT22;37695;52.960;6.188;2023-05-14T10:19:09;20.70;99.90
51615;DHT22;37695;52.960;6.188;2023-05-14T10:21:37;20.80;99.90
51615;DHT22;37695;52.960;6.188;2023-05-14T10:24:04;20.70;99.90
51615;DHT22;37695;52.960;6.188;2023-05-14T10:26:36;20.70;99.90
51615;DHT22;37695;52.960;6.188;2023-05-14T10:29:04;20.60;99.90
51615;DHT22;37695;52.960;6.188;2023-05-14T10:31:50;20.60;99.90
51615;DHT22;37695;52.960;6.188;2023-05-14T10:39:43;20.80;99.90
51615;DHT22;37695;52.960;6.188;2023-05-14T10:42:22;20.80;99.90
51615;DHT22;37695;52.960;6.188;2023-05-14T10:44:56;21.00;99.90
51615;DHT22;37695;52.960;6.188;2023-05-14T10:47:24;21.10;99.90
51615;DHT22;37695;52.960;6.188;2023-05-14T10:49:55;21.10;99.90
51615;DHT22;37695;52.960;6.188;2023-05-14T10:52:22;21.10;99.90
51615;DHT22;37695;52.960;6.188;2023-05-14T10:54:59;21.10;99.90
51615;DHT22;37695;52.960;6.188;2023-05-14T10:57:27;21.30;99.90
51615;DHT22;37695;52.960;6.188;2023-05-14T10:59:55;21.30;99.90
51615;DHT22;37695;52.960;6.188;2023-05-14T11:02:26;21.50;99.90
51615;DHT22;37695;52.960;6.188;2023-05-14T11:04:57;21.60;99.90
51615;DHT22;37695;52.960;6.188;2023-05-14T11:07:29;21.60;99.90
51615;DHT22;37695;52.960;6.188;2023-05-14T11:10:00;21.50;99.90
51615;DHT22;37695;52.960;6.188;2023-05-14T11:12:26;21.50;99.90
51615;DHT22;37695;52.960;6.188;2023-05-14T11:14:53;21.50;99.90
51615;DHT22;37695;52.960;6.188;2023-05-14T11:17:19;21.40;99.90
51615;DHT22;37695;52.960;6.188;2023-05-14T11:19:44;21.30;99.90
51615;DHT22;37695;52.960;6.188;2023-05-14T11:22:10;21.60;99.90
51615;DHT22;37695;52.960;6.188;2023-05-14T11:24:39;21.70;99.90
51615;DHT22;37695;52.960;6.188;2023-05-14T11:27:07;22.00;99.90
51615;DHT22;37695;52.960;6.188;2023-05-14T11:29:34;22.00;99.90
51615;DHT22;37695;52.960;6.188;2023-05-14T11:32:01;22.20;99.90
51615;DHT22;37695;52.960;6.188;2023-05-14T11:34:27;22.30;99.90
51615;DHT22;37695;52.960;6.188;2023-05-14T11:36:53;22.30;99.80
51615;DHT22;37695;52.960;6.188;2023-05-14T11:39:18;22.40;99.30
51615;DHT22;37695;52.960;6.188;2023-05-14T11:41:44;22.40;99.30
51615;DHT22;37695;52.960;6.188;2023-05-14T11:44:10;22.40;99.50
51615;DHT22;37695;52.960;6.188;2023-05-14T11:46:36;22.30;99.20
51615;DHT22;37695;52.960;6.188;2023-05-14T11:49:04;22.40;99.10
51615;DHT22;37695;52.960;6.188;2023-05-14T11:51:31;22.60;99.10
51615;DHT22;37695;52.960;6.188;2023-05-14T11:53:56;22.60;98.90
51615;DHT22;37695;52.960;6.188;2023-05-14T11:56:23;22.60;98.90
51615;DHT22;37695;52.960;6.188;2023-05-14T11:58:54;22.90;99.00
51615;DHT22;37695;52.960;6.188;2023-05-14T12:01:19;23.10;99.10
51615;DHT22;37695;52.960;6.188;2023-05-14T12:03:45;23.10;98.40
51615;DHT22;37695;52.960;6.188;2023-05-14T12:06:11;23.10;98.50
51615;DHT22;37695;52.960;6.188;2023-05-14T12:08:36;23.20;98.10
51615;DHT22;37695;52.960;6.188;2023-05-14T12:11:02;23.20;97.80
51615;DHT22;37695;52.960;6.188;2023-05-14T12:13:31;23.30;97.90
51615;DHT22;37695;52.960;6.188;2023-05-14T12:16:01;23.40;96.80
51615;DHT22;37695;52.960;6.188;2023-05-14T12:18:29;23.50;97.40
51615;DHT22;37695;52.960;6.188;2023-05-14T12:20:55;23.50;97.60
51615;DHT22;37695;52.960;6.188;2023-05-14T12:23:28;23.60;97.20
51615;DHT22;37695;52.960;6.188;2023-05-14T12:25:54;23.70;97.20
51615;DHT22;37695;52.960;6.188;2023-05-14T12:28:22;23.60;96.90
51615;DHT22;37695;52.960;6.188;2023-05-14T12:30:47;23.60;96.30
51615;DHT22;37695;52.960;6.188;2023-05-14T12:33:19;23.40;96.60
51615;DHT22;37695;52.960;6.188;2023-05-14T12:35:47;23.30;96.90
51615;DHT22;37695;52.960;6.188;2023-05-14T12:38:13;23.20;97.00
51615;DHT22;37695;52.960;6.188;2023-05-14T12:40:38;23.20;96.90
51615;DHT22;37695;52.960;6.188;2023-05-14T12:43:04;23.20;97.00
51615;DHT22;37695;52.960;6.188;2023-05-14T12:45:29;23.30;96.80
51615;DHT22;37695;52.960;6.188;2023-05-14T12:47:55;23.20;96.60
51615;DHT22;37695;52.960;6.188;2023-05-14T12:50:20;23.20;96.90
51615;DHT22;37695;52.960;6.188;2023-05-14T12:52:46;23.30;97.20
51615;DHT22;37695;52.960;6.188;2023-05-14T12:55:12;23.20;96.70
51615;DHT22;37695;52.960;6.188;2023-05-14T12:57:37;23.20;96.50
51615;DHT22;37695;52.960;6.188;2023-05-14T13:00:03;23.20;97.00
51615;DHT22;37695;52.960;6.188;2023-05-14T13:02:33;23.10;97.30
51615;DHT22;37695;52.960;6.188;2023-05-14T13:04:58;23.10;97.10
51615;DHT22;37695;52.960;6.188;2023-05-14T13:07:27;23.10;97.40
51615;DHT22;37695;52.960;6.188;2023-05-14T13:09:54;23.10;97.60
51615;DHT22;37695;52.960;6.188;2023-05-14T13:12:20;23.10;97.40
51615;DHT22;37695;52.960;6.188;2023-05-14T13:14:46;23.20;97.30
51615;DHT22;37695;52.960;6.188;2023-05-14T13:17:11;23.20;96.20
51615;DHT22;37695;52.960;6.188;2023-05-14T13:19:37;23.30;95.90
51615;DHT22;37695;52.960;6.188;2023-05-14T13:22:02;23.40;95.90
51615;DHT22;37695;52.960;6.188;2023-05-14T13:24:28;23.40;95.80
51615;DHT22;37695;52.960;6.188;2023-05-14T13:26:54;23.50;95.80
51615;DHT22;37695;52.960;6.188;2023-05-14T13:29:19;23.40;95.20
51615;DHT22;37695;52.960;6.188;2023-05-14T13:31:45;23.40;94.30
51615;DHT22;37695;52.960;6.188;2023-05-14T13:34:10;23.30;94.30
51615;DHT22;37695;52.960;6.188;2023-05-14T13:36:37;23.20;93.40
51615;DHT22;37695;52.960;6.188;2023-05-14T13:39:07;23.20;93.10
51615;DHT22;37695;52.960;6.188;2023-05-14T13:41:32;23.20;93.70
51615;DHT22;37695;52.960;6.188;2023-05-14T13:43:59;23.20;94.40
51615;DHT22;37695;52.960;6.188;2023-05-14T13:46:25;23.30;94.70
51615;DHT22;37695;52.960;6.188;2023-05-14T13:48:51;23.40;94.20
51615;DHT22;37695;52.960;6.188;2023-05-14T13:51:16;23.40;94.50
51615;DHT22;37695;52.960;6.188;2023-05-14T13:53:42;23.50;94.80
51615;DHT22;37695;52.960;6.188;2023-05-14T13:56:08;23.50;95.20
51615;DHT22;37695;52.960;6.188;2023-05-14T13:58:34;23.60;95.20
51615;DHT22;37695;52.960;6.188;2023-05-14T14:00:59;23.50;95.60
51615;DHT22;37695;52.960;6.188;2023-05-14T14:03:25;23.50;95.70
51615;DHT22;37695;52.960;6.188;2023-05-14T14:05:50;23.40;95.30
51615;DHT22;37695;52.960;6.188;2023-05-14T14:08:17;23.40;95.00
51615;DHT22;37695;52.960;6.188;2023-05-14T14:10:43;23.40;94.60
51615;DHT22;37695;52.960;6.188;2023-05-14T14:13:09;23.40;94.10
51615;DHT22;37695;52.960;6.188;2023-05-14T14:15:35;23.40;93.90
51615;DHT22;37695;52.960;6.188;2023-05-14T14:18:01;23.30;94.30
51615;DHT22;37695;52.960;6.188;2023-05-14T14:20:27;23.40;93.70
51615;DHT22;37695;52.960;6.188;2023-05-14T14:22:53;23.30;93.50
51615;DHT22;37695;52.960;6.188;2023-05-14T14:25:19;23.30;93.30
51615;DHT22;37695;52.960;6.188;2023-05-14T14:27:44;23.30;92.70
51615;DHT22;37695;52.960;6.188;2023-05-14T14:30:10;23.30;92.90
51615;DHT22;37695;52.960;6.188;2023-05-14T14:32:58;23.30;93.20
51615;DHT22;37695;52.960;6.188;2023-05-14T14:35:25;23.30;93.50
51615;DHT22;37695;52.960;6.188;2023-05-14T14:37:51;23.30;92.80
51615;DHT22;37695;52.960;6.188;2023-05-14T14:40:18;23.30;92.20
51615;DHT22;37695;52.960;6.188;2023-05-14T14:42:44;23.30;91.20
51615;DHT22;37695;52.960;6.188;2023-05-14T14:45:10;23.50;91.10
51615;DHT22;37695;52.960;6.188;2023-05-14T14:47:36;23.40;91.20
51615;DHT22;37695;52.960;6.188;2023-05-14T14:50:02;23.40;91.40
51615;DHT22;37695;52.960;6.188;2023-05-14T14:52:27;23.30;92.20
51615;DHT22;37695;52.960;6.188;2023-05-14T14:54:53;23.30;92.60
51615;DHT22;37695;52.960;6.188;2023-05-14T14:57:19;23.20;92.40
51615;DHT22;37695;52.960;6.188;2023-05-14T14:59:46;23.30;93.10
51615;DHT22;37695;52.960;6.188;2023-05-14T15:02:12;23.30;93.10
51615;DHT22;37695;52.960;6.188;2023-05-14T15:04:38;23.20;93.30
51615;DHT22;37695;52.960;6.188;2023-05-14T15:07:04;23.20;92.50
51615;DHT22;37695;52.960;6.188;2023-05-14T15:09:30;23.10;92.30
51615;DHT22;37695;52.960;6.188;2023-05-14T15:11:56;23.20;93.30
51615;DHT22;37695;52.960;6.188;2023-05-14T15:14:22;23.20;93.20
51615;DHT22;37695;52.960;6.188;2023-05-14T15:16:47;23.20;93.90
51615;DHT22;37695;52.960;6.188;2023-05-14T15:19:13;23.10;94.00
51615;DHT22;37695;52.960;6.188;2023-05-14T15:21:38;23.10;94.10
51615;DHT22;37695;52.960;6.188;2023-05-14T15:24:04;23.00;94.30
51615;DHT22;37695;52.960;6.188;2023-05-14T15:26:30;23.00;94.70
51615;DHT22;37695;52.960;6.188;2023-05-14T15:28:56;23.00;94.50
51615;DHT22;37695;52.960;6.188;2023-05-14T15:31:23;22.90;94.40
51615;DHT22;37695;52.960;6.188;2023-05-14T15:33:49;22.90;94.40
51615;DHT22;37695;52.960;6.188;2023-05-14T15:36:15;22.90;95.10
51615;DHT22;37695;52.960;6.188;2023-05-14T15:38:41;23.00;95.10